Time;durP1;ratioP1;P1;durP2;ratioP2;P2;SDS_P1;SDS_P2;PMS_P1;PMS_P2;Temp;Humidity;BMP_temperature;BMP_pressure;BME280_temperature;BME280_humidity;BME280_pressure;Samples;Min_cycle;Max_cycle;Signal;HPM_P1;HPM_P2
2022/05/24 20:08:32;;;;;;;20.27;5.25;;;;;;;;;;5132488;27;20392;-71
2022/05/24 20:11:00;;;;;;;100.70;43.22;;;;;;;;;;5116357;27;20041;-72
2022/05/24 20:13:30;;;;;;;38.05;15.23;;;;;;;;;;5100017;27;20533;-72
2022/05/24 20:16:06;;;;;;;21.75;5.05;;;;;;;;;;5101147;27;20042;-73
2022/05/24 20:18:33;;;;;;;20.08;4.18;;;;;;;;;;5114583;27;20033;-72
2022/05/24 20:21:07;;;;;;;18.58;3.58;;;;;;;;;;5103378;27;20027;-72
2022/05/24 20:23:37;;;;;;;22.50;3.78;;;;;;;;;;5087744;27;20678;-72
2022/05/24 20:26:03;;;;;;;19.33;3.40;;;;;;;;;;5097249;27;20542;-72
2022/05/24 20:28:31;;;;;;;18.75;3.50;;;;;;;;;;5115527;27;20126;-71
2022/05/24 20:31:00;;;;;;;16.20;3.15;;;;;;;;;;5105748;27;20515;-72
2022/05/24 20:33:27;;;;;;;18.42;3.97;;;;;;;;;;5106725;27;20038;-72
2022/05/24 20:35:56;;;;;;;16.98;3.65;;;;;;;;;;5105878;27;20352;-72
2022/05/24 20:38:23;;;;;;;17.13;3.35;;;;;;;;;;5096793;27;20694;-72
2022/05/24 20:40:53;;;;;;;18.27;3.75;;;;;;;;;;5105303;27;20039;-71
2022/05/24 20:43:21;;;;;;;16.40;3.15;;;;;;;;;;5112803;27;20051;-72
2022/05/24 20:45:47;;;;;;;17.02;4.45;;;;;;;;;;5085637;28;20496;-72
2022/05/24 20:48:15;;;;;;;17.88;3.80;;;;;;;;;;5077838;28;20502;-71
2022/05/24 20:50:43;;;;;;;18.75;3.95;;;;;;;;;;5086912;28;20442;-72
2022/05/24 20:53:11;;;;;;;19.83;4.03;;;;;;;;;;5064245;28;20477;-72
2022/05/24 20:55:40;;;;;;;19.95;3.83;;;;;;;;;;5052715;28;20123;-72
2022/05/24 20:58:09;;;;;;;21.02;4.03;;;;;;;;;;5057839;28;20590;-72
2022/05/24 21:00:35;;;;;;;19.98;3.85;;;;;;;;;;5018582;28;21074;-72
2022/05/24 21:03:07;;;;;;;20.02;4.15;;;;;;;;;;5003927;28;20132;-72
2022/05/24 21:05:39;;;;;;;19.33;3.80;;;;;;;;;;5014823;28;20667;-71
2022/05/24 21:08:06;;;;;;;17.17;3.35;;;;;;;;;;5014890;28;20049;-73
2022/05/24 21:10:32;;;;;;;21.20;4.70;;;;;;;;;;5018914;28;20669;-73
2022/05/24 21:12:59;;;;;;;22.83;4.03;;;;;;;;;;5006906;28;20033;-72
2022/05/24 21:15:27;;;;;;;19.75;3.38;;;;;;;;;;5017921;28;20565;-72
2022/05/24 21:17:56;;;;;;;21.23;3.65;;;;;;;;;;5019899;28;20022;-72
2022/05/24 21:20:23;;;;;;;20.75;3.90;;;;;;;;;;4998799;28;20049;-73
2022/05/24 21:22:51;;;;;;;19.77;3.65;;;;;;;;;;5003447;28;20545;-71
2022/05/24 21:28:06;;;;;;;17.83;3.45;;;;;;;;;;5000253;28;20120;-72
2022/05/24 21:30:41;;;;;;;19.88;3.35;;;;;;;;;;5004255;28;21502;-70
2022/05/24 21:33:13;;;;;;;18.55;3.42;;;;;;;;;;4966401;28;20076;-71
2022/05/24 21:35:41;;;;;;;19.83;3.58;;;;;;;;;;5014502;28;20583;-71
2022/05/24 21:38:11;;;;;;;18.38;3.70;;;;;;;;;;5020008;28;20066;-72
2022/05/24 21:40:40;;;;;;;18.70;3.70;;;;;;;;;;5029201;28;20082;-73
2022/05/24 21:43:07;;;;;;;20.58;3.35;;;;;;;;;;5041459;28;20133;-73
2022/05/24 21:45:35;;;;;;;15.93;3.60;;;;;;;;;;5047484;28;20048;-73
2022/05/24 21:48:05;;;;;;;18.65;3.90;;;;;;;;;;5022657;28;20125;-73
2022/05/24 21:50:32;;;;;;;21.35;4.03;;;;;;;;;;5049847;28;20040;-73
2022/05/24 21:53:00;;;;;;;15.52;3.53;;;;;;;;;;5056905;28;20043;-73
2022/05/24 21:55:30;;;;;;;19.75;3.50;;;;;;;;;;5056982;28;20636;-73
2022/05/24 21:57:57;;;;;;;17.38;3.20;;;;;;;;;;5063911;28;20592;-72
2022/05/24 22:00:42;;;;;;;19.35;3.22;;;;;;;;;;5061564;28;20467;-72
2022/05/24 22:03:09;;;;;;;18.20;3.15;;;;;;;;;;5077606;27;20028;-71
2022/05/24 22:05:39;;;;;;;14.98;3.10;;;;;;;;;;5063150;28;20039;-70
2022/05/24 22:08:08;;;;;;;14.25;3.22;;;;;;;;;;5045017;28;20095;-71
2022/05/24 22:10:38;;;;;;;17.98;3.60;;;;;;;;;;5057595;28;20024;-71
2022/05/24 22:13:07;;;;;;;22.48;3.28;;;;;;;;;;5051838;28;20105;-72
2022/05/24 22:15:34;;;;;;;15.05;3.00;;;;;;;;;;5065112;28;20039;-72
2022/05/24 22:18:03;;;;;;;;;;;;;;;;;;5062043;28;20038;-72
2022/05/24 22:20:32;;;;;;;15.48;2.97;;;;;;;;;;5063440;28;20393;-71
2022/05/24 22:23:00;;;;;;;16.13;3.22;;;;;;;;;;5058433;28;20083;-72
2022/05/24 22:25:28;;;;;;;17.63;3.25;;;;;;;;;;5058956;28;20051;-71
2022/05/24 22:27:55;;;;;;;16.73;3.13;;;;;;;;;;5056937;28;20052;-72
2022/05/24 22:30:24;;;;;;;19.70;3.13;;;;;;;;;;5053269;28;20036;-71
2022/05/24 22:32:50;;;;;;;19.23;3.42;;;;;;;;;;5059462;28;20035;-71
2022/05/24 22:35:18;;;;;;;20.17;3.65;;;;;;;;;;5064520;28;20569;-72
2022/05/24 22:37:45;;;;;;;23.80;3.65;;;;;;;;;;5059788;28;20489;-72
2022/05/24 22:40:13;;;;;;;17.73;3.42;;;;;;;;;;5057766;28;20032;-72
2022/05/24 22:42:39;;;;;;;19.67;3.67;;;;;;;;;;5050617;28;20076;-72
2022/05/24 22:45:09;;;;;;;19.38;3.63;;;;;;;;;;5036612;28;20052;-71
2022/05/24 22:47:38;;;;;;;22.13;3.83;;;;;;;;;;5061802;28;20952;-71
2022/05/24 22:50:06;;;;;;;26.08;4.40;;;;;;;;;;5045194;28;20039;-73
2022/05/24 22:52:35;;;;;;;20.35;3.60;;;;;;;;;;5066978;28;20015;-71
2022/05/24 22:55:05;;;;;;;19.02;3.63;;;;;;;;;;5047466;28;21324;-72
2022/05/24 22:57:33;;;;;;;19.83;4.20;;;;;;;;;;5064257;28;20480;-72
2022/05/24 23:00:01;;;;;;;17.52;3.53;;;;;;;;;;5061804;28;20032;-71
2022/05/24 23:02:29;;;;;;;16.42;3.10;;;;;;;;;;5059473;28;20024;-71
2022/05/24 23:04:57;;;;;;;21.60;3.75;;;;;;;;;;5052981;28;20119;-71
2022/05/24 23:07:24;;;;;;;17.38;3.08;;;;;;;;;;5040132;27;20375;-71
2022/05/24 23:09:52;;;;;;;21.52;4.35;;;;;;;;;;5064847;28;20074;-71
2022/05/24 23:12:20;;;;;;;17.40;3.42;;;;;;;;;;5081372;27;20433;-71
2022/05/24 23:14:47;;;;;;;19.55;3.58;;;;;;;;;;5088812;27;20557;-71
2022/05/24 23:17:16;;;;;;;16.90;2.92;;;;;;;;;;5066475;28;20035;-72
2022/05/24 23:19:48;;;;;;;14.93;3.17;;;;;;;;;;5063040;28;20442;-71
2022/05/24 23:22:17;;;;;;;19.88;3.25;;;;;;;;;;5077892;27;20430;-71
2022/05/24 23:24:45;;;;;;;19.85;3.10;;;;;;;;;;5081746;27;20363;-72
2022/05/24 23:27:13;;;;;;;17.98;3.17;;;;;;;;;;5071542;27;20027;-72
2022/05/24 23:29:41;;;;;;;19.95;3.40;;;;;;;;;;5079164;27;20039;-72
2022/05/24 23:32:08;;;;;;;17.67;3.40;;;;;;;;;;5076180;27;20027;-71
2022/05/24 23:34:35;;;;;;;15.93;3.05;;;;;;;;;;5080394;27;20110;-72
2022/05/24 23:37:03;;;;;;;18.48;3.47;;;;;;;;;;5083676;27;20058;-70
2022/05/24 23:39:33;;;;;;;16.30;2.95;;;;;;;;;;5052634;27;20457;-73
2022/05/24 23:42:01;;;;;;;14.60;2.85;;;;;;;;;;5055768;28;20040;-73
2022/05/24 23:44:30;;;;;;;20.77;3.72;;;;;;;;;;5043312;28;20155;-72
2022/05/24 23:46:57;;;;;;;12.82;2.72;;;;;;;;;;5053842;28;20036;-73
2022/05/24 23:49:26;;;;;;;15.02;2.70;;;;;;;;;;5057207;28;20094;-72
2022/05/24 23:51:53;;;;;;;19.10;3.22;;;;;;;;;;5055434;28;20039;-72
2022/05/24 23:54:23;;;;;;;17.80;2.90;;;;;;;;;;5036183;28;20120;-72
2022/05/24 23:56:50;;;;;;;19.58;3.00;;;;;;;;;;5057615;28;20175;-72
2022/05/24 23:59:19;;;;;;;19.77;3.67;;;;;;;;;;5050095;28;20128;-71
